Time;durP1;ratioP1;P1;durP2;ratioP2;P2;SDS_P1;SDS_P2;PMS_P1;PMS_P2;Temp;Humidity;BMP_temperature;BMP_pressure;BME280_temperature;BME280_humidity;BME280_pressure;Samples;Min_cycle;Max_cycle;Signal;HPM_P1;HPM_P2
2021/05/04 00:01:26;;;;;;;7.92;2.75;;;;;;;6.81;71.55;99893.52;1692974;85;21319;-78
2021/05/04 00:04:32;;;;;;;5.00;2.12;;;;;;;6.76;71.32;99900.45;1720711;83;21358;-78
2021/05/04 00:07:38;;;;;;;7.25;2.72;;;;;;;6.69;71.28;99901.63;1691499;85;21368;-78
2021/05/04 00:10:43;;;;;;;2.42;2.22;;;;;;;6.65;71.21;99902.95;1721678;83;21201;-78
2021/05/04 00:13:51;;;;;;;2.90;1.98;;;;;;;6.61;71.17;99898.34;1720345;83;21432;-78
2021/05/04 00:16:57;;;;;;;5.67;2.35;;;;;;;6.57;71.24;99896.95;1721808;83;21359;-78
2021/05/04 00:20:04;;;;;;;4.97;2.58;;;;;;;6.54;71.50;99900.02;1720554;83;21544;-78
2021/05/04 00:23:09;;;;;;;7.95;2.10;;;;;;;6.50;71.85;99899.13;1721830;83;21845;-78
2021/05/04 00:26:15;;;;;;;5.33;2.10;;;;;;;6.46;72.33;99896.38;1720380;83;21346;-78
2021/05/04 00:29:20;;;;;;;5.47;2.27;;;;;;;6.40;72.72;99900.59;1720413;83;21835;-78
2021/05/04 00:32:26;;;;;;;5.35;2.40;;;;;;;6.36;73.01;99895.98;1721789;83;21359;-78
2021/05/04 00:35:33;;;;;;;5.80;2.40;;;;;;;6.35;73.26;99906.51;1721046;83;21362;-78
2021/05/04 00:38:38;;;;;;;6.50;2.60;;;;;;;6.32;73.36;99914.97;1720455;83;21213;-78
2021/05/04 00:41:44;;;;;;;3.15;2.22;;;;;;;6.29;73.54;99917.14;1721806;83;21312;-78
2021/05/04 00:44:50;;;;;;;11.30;2.37;;;;;;;6.26;73.68;99912.89;1721362;83;21359;-78
2021/05/04 00:47:55;;;;;;;4.95;2.67;;;;;;;6.21;73.73;99917.06;1721927;83;21193;-78
2021/05/04 00:51:01;;;;;;;12.43;4.85;;;;;;;6.18;73.91;99918.25;1720407;83;21883;-78
2021/05/04 00:54:07;;;;;;;7.15;3.85;;;;;;;6.15;73.92;99921.27;1743314;82;21735;-78
2021/05/04 00:57:14;;;;;;;4.90;2.80;;;;;;;6.10;73.91;99914.95;1747958;82;21239;-78
2021/05/04 01:00:21;;;;;;;6.67;3.20;;;;;;;6.08;73.96;99918.85;1708465;83;21323;-78
2021/05/04 01:03:28;;;;;;;5.83;2.92;;;;;;;6.03;73.88;99915.25;1743657;82;21740;-78
2021/05/04 01:06:35;;;;;;;6.87;2.08;;;;;;;6.00;73.54;99924.20;1714263;83;21338;-78
2021/05/04 01:09:40;;;;;;;3.37;2.35;;;;;;;5.93;73.05;99925.34;1744702;82;21372;-78
2021/05/04 01:12:45;;;;;;;8.98;2.37;;;;;;;5.87;72.63;99930.83;1747935;82;21291;-78
2021/05/04 01:15:52;;;;;;;7.45;2.30;;;;;;;5.81;72.36;99927.39;1746386;82;21179;-78
2021/05/04 01:19:00;;;;;;;7.08;2.52;;;;;;;5.78;72.30;99933.63;1747853;82;21223;-78
2021/05/04 01:22:07;;;;;;;6.47;2.58;;;;;;;5.75;72.31;99928.02;1746605;82;21839;-78
2021/05/04 01:25:15;;;;;;;21.37;3.62;;;;;;;5.71;72.42;99930.69;1747895;82;21213;-78
2021/05/04 01:28:22;;;;;;;19.87;3.37;;;;;;;5.67;72.37;99930.64;1747870;82;21295;-78
2021/05/04 01:31:30;;;;;;;9.75;2.83;;;;;;;5.65;71.96;99932.67;1747973;82;21282;-78
2021/05/04 01:34:36;;;;;;;3.42;2.35;;;;;;;5.63;71.53;99935.52;1747755;82;21849;-78
2021/05/04 01:37:41;;;;;;;8.13;2.70;;;;;;;5.59;71.43;99931.41;1746700;82;21357;-78
2021/05/04 01:40:47;;;;;;;3.00;2.33;;;;;;;5.56;71.39;99936.31;1747963;82;21337;-78
2021/05/04 01:43:52;;;;;;;12.95;3.00;;;;;;;5.54;71.47;99940.51;1747831;82;21172;-78
2021/05/04 01:46:58;;;;;;;7.72;2.45;;;;;;;5.53;71.34;99947.45;1746434;82;21255;-78
2021/05/04 01:50:05;;;;;;;3.75;2.80;;;;;;;5.52;71.12;99945.75;1747354;82;21208;-78
2021/05/04 01:53:10;;;;;;;4.22;2.50;;;;;;;5.53;71.06;99955.59;1756056;80;21252;-78
2021/05/04 01:56:16;;;;;;;3.47;2.83;;;;;;;5.50;70.92;99955.37;1773625;81;21295;-78
2021/05/04 01:59:22;;;;;;;6.28;2.90;;;;;;;5.49;71.00;99960.46;1774148;81;21834;-78
2021/05/04 02:02:29;;;;;;;4.33;2.42;;;;;;;5.48;71.25;99967.41;1773964;81;21358;-79
2021/05/04 02:05:35;;;;;;;5.12;2.50;;;;;;;5.45;71.32;99969.05;1773480;81;21323;-78
2021/05/04 02:08:41;;;;;;;6.78;3.27;;;;;;;5.42;71.35;99977.02;1742898;82;21967;-78
2021/05/04 02:11:48;;;;;;;4.50;2.67;;;;;;;5.37;71.27;99971.19;1744449;82;21359;-78
2021/05/04 02:14:54;;;;;;;6.37;3.10;;;;;;;5.34;70.82;99967.41;1742924;82;21354;-78
2021/05/04 02:18:00;;;;;;;7.00;2.55;;;;;;;5.28;70.66;99968.88;1743073;82;21828;-78
2021/05/04 02:21:06;;;;;;;5.53;2.50;;;;;;;5.19;70.53;99967.06;1742186;82;21339;-78
2021/05/04 02:24:13;;;;;;;3.80;2.30;;;;;;;5.15;70.59;99969.72;1742887;82;21240;-78
2021/05/04 02:27:19;;;;;;;9.15;4.75;;;;;;;5.12;70.91;99969.50;1742055;82;21339;-78
2021/05/04 02:30:25;;;;;;;4.65;2.85;;;;;;;5.12;70.78;99966.79;1743021;82;21245;-78
2021/05/04 02:33:31;;;;;;;5.72;2.85;;;;;;;5.14;70.52;99978.86;1742837;82;21349;-79
2021/05/04 02:36:39;;;;;;;6.90;2.70;;;;;;;5.22;70.63;99982.16;1743571;82;21324;-79
2021/05/04 02:39:45;;;;;;;3.87;2.50;;;;;;;5.32;70.20;99991.98;1773858;81;21299;-78
2021/05/04 02:42:51;;;;;;;5.45;2.35;;;;;;;5.36;69.88;99997.46;1772571;81;21895;-78
2021/05/04 02:45:57;;;;;;;3.80;2.75;;;;;;;5.37;69.58;100007.30;1772563;81;21362;-78
2021/05/04 02:49:04;;;;;;;4.53;2.50;;;;;;;5.43;69.44;99999.56;1773978;81;21232;-78
2021/05/04 02:52:12;;;;;;;4.03;2.30;;;;;;;5.48;69.37;99999.95;1772349;81;21339;-78
2021/05/04 02:55:17;;;;;;;9.33;4.00;;;;;;;5.52;69.16;100009.51;1772781;80;21300;-78
2021/05/04 02:58:24;;;;;;;8.18;2.45;;;;;;;5.60;69.08;100010.97;1772299;81;21304;-79
2021/05/04 03:01:30;;;;;;;3.85;2.10;;;;;;;5.68;68.81;100006.12;1772390;81;21736;-79
2021/05/04 03:04:36;;;;;;;3.65;2.20;;;;;;;5.75;68.40;100014.87;1743141;82;21333;-78
2021/05/04 03:07:44;;;;;;;2.87;2.20;;;;;;;5.89;68.15;100018.41;1744158;82;21362;-79
2021/05/04 03:10:50;;;;;;;5.17;2.17;;;;;;;6.06;67.79;100024.88;1772618;81;21303;-79
2021/05/04 03:13:55;;;;;;;2.90;2.15;;;;;;;6.15;67.20;100020.39;1741273;82;21301;-78
2021/05/04 03:17:03;;;;;;;4.42;2.67;;;;;;;6.19;67.08;100026.38;1744284;82;21197;-78
2021/05/04 03:20:10;;;;;;;5.60;2.00;;;;;;;6.23;67.03;100031.34;1742749;82;21347;-78
2021/05/04 03:23:16;;;;;;;3.77;2.20;;;;;;;6.27;66.51;100040.89;1742905;82;21228;-78
2021/05/04 03:26:21;;;;;;;5.37;2.60;;;;;;;6.36;66.17;100037.24;1771801;81;21696;-78
2021/05/04 03:29:27;;;;;;;5.70;2.70;;;;;;;6.48;65.84;100047.86;1741292;82;21332;-78
2021/05/04 03:32:32;;;;;;;3.90;2.27;;;;;;;6.60;65.95;100047.98;1743341;82;21296;-78
2021/05/04 03:35:38;;;;;;;4.62;2.30;;;;;;;6.80;65.40;100055.44;1742519;82;21858;-78
2021/05/04 03:38:44;;;;;;;5.72;2.40;;;;;;;7.01;64.92;100050.98;1771391;81;21470;-78
2021/05/04 03:41:50;;;;;;;3.17;2.47;;;;;;;7.20;63.56;100058.08;1772432;81;21386;-78
2021/05/04 03:44:55;;;;;;;7.85;2.30;;;;;;;7.28;63.10;100057.62;1772449;81;21249;-78
2021/05/04 03:48:01;;;;;;;4.47;2.22;;;;;;;7.29;62.72;100063.91;1771115;81;21394;-78
2021/05/04 03:51:07;;;;;;;9.40;2.40;;;;;;;7.29;63.66;100056.63;1742050;82;21207;-78
2021/05/04 03:54:14;;;;;;;4.92;2.10;;;;;;;7.33;63.61;100070.23;1743611;82;21886;-78
2021/05/04 03:57:20;;;;;;;6.97;2.62;;;;;;;7.41;63.75;100079.81;1734625;82;21925;-78
2021/05/04 04:00:27;;;;;;;5.87;2.98;;;;;;;7.54;63.46;100082.61;1803029;79;21354;-78
2021/05/04 04:03:28;;;;;;;4.25;2.40;;;;;;;7.64;63.52;100080.61;1802599;79;21216;-78
2021/05/04 04:06:34;;;;;;;5.45;2.35;;;;;;;7.74;63.67;100082.70;1802984;79;21264;-78
2021/05/04 04:09:41;;;;;;;6.42;2.92;;;;;;;7.88;63.61;100092.96;1801477;79;21323;-78
2021/05/04 04:12:47;;;;;;;5.45;2.85;;;;;;;8.05;63.20;100093.04;1801463;79;21818;-78
2021/05/04 04:15:52;;;;;;;5.75;2.65;;;;;;;8.17;61.92;100088.97;1802910;79;21177;-78
2021/05/04 04:18:59;;;;;;;3.65;2.33;;;;;;;8.26;62.07;100100.23;1763951;81;21192;-78
2021/05/04 04:22:05;;;;;;;12.25;3.15;;;;;;;8.37;62.04;100099.94;1803050;79;21346;-78
2021/05/04 04:25:15;;;;;;;7.20;2.75;;;;;;;8.47;61.12;100103.02;1802912;79;21291;-78
2021/05/04 04:28:21;;;;;;;7.50;2.75;;;;;;;8.59;61.83;100107.99;1802530;79;21207;-78
2021/05/04 04:31:27;;;;;;;4.00;2.30;;;;;;;8.69;59.66;100113.28;1802861;79;21880;-78
2021/05/04 04:34:32;;;;;;;5.72;2.50;;;;;;;8.70;59.25;100106.32;1802928;79;21300;-78
2021/05/04 04:37:38;;;;;;;4.40;2.30;;;;;;;8.74;58.93;100108.17;1801679;79;21720;-78
2021/05/04 04:40:45;;;;;;;5.20;2.20;;;;;;;8.81;59.01;100107.85;1802994;79;21775;-78
2021/05/04 04:43:50;;;;;;;43.10;4.80;;;;;;;8.90;59.12;100123.20;1802861;79;21287;-78
2021/05/04 04:46:55;;;;;;;6.47;2.80;;;;;;;9.00;58.63;100106.66;1802912;79;21867;-78
2021/05/04 04:50:01;;;;;;;5.28;2.10;;;;;;;9.09;57.61;100102.05;1801543;79;21217;-78
2021/05/04 04:53:08;;;;;;;21.30;3.10;;;;;;;9.19;57.28;100097.27;1801592;79;21326;-78
2021/05/04 04:56:14;;;;;;;3.60;2.40;;;;;;;9.29;57.06;100113.45;1802926;79;21298;-78
2021/05/04 04:59:22;;;;;;;23.07;2.77;;;;;;;9.37;56.55;100110.20;1772327;81;21303;-78
2021/05/04 05:02:27;;;;;;;3.52;2.55;;;;;;;9.45;56.68;100092.42;1742350;82;21347;-78
2021/05/04 05:05:33;;;;;;;6.05;2.45;;;;;;;9.53;56.72;100115.28;1772982;81;21303;-78
2021/05/04 05:08:39;;;;;;;10.38;2.65;;;;;;;9.59;56.55;100111.84;1741259;82;22585;-78
2021/05/04 05:11:44;;;;;;;3.77;2.30;;;;;;;9.63;56.36;100118.66;1772922;81;21233;-78
2021/05/04 05:14:53;;;;;;;5.70;2.55;;;;;;;9.70;56.08;100125.15;1742433;82;21252;-78
2021/05/04 05:18:04;;;;;;;4.22;2.15;;;;;;;9.76;55.78;100125.80;1773101;81;21304;-78
2021/05/04 05:21:06;;;;;;;2.80;2.22;;;;;;;9.83;56.48;100128.15;1742347;82;21971;-78
2021/05/04 05:24:11;;;;;;;5.53;2.37;;;;;;;9.96;56.71;100130.34;1772285;81;21220;-78
2021/05/04 05:27:17;;;;;;;4.75;2.65;;;;;;;10.06;54.30;100128.75;1742303;82;21303;-79
2021/05/04 05:30:24;;;;;;;8.65;2.62;;;;;;;10.04;54.89;100135.77;1771773;81;21327;-79
2021/05/04 05:33:30;;;;;;;5.62;2.75;;;;;;;10.02;55.56;100130.13;1742354;82;21296;-79
2021/05/04 05:36:35;;;;;;;7.60;2.47;;;;;;;10.09;55.31;100144.81;1772539;81;22588;-79
2021/05/04 05:39:44;;;;;;;5.30;2.50;;;;;;;10.15;56.05;100135.89;1741498;82;21330;-79
2021/05/04 05:42:50;;;;;;;7.67;2.55;;;;;;;10.27;55.61;100139.13;1772787;81;21498;-79
2021/05/04 05:45:58;;;;;;;4.37;2.70;;;;;;;10.32;55.28;100149.86;1742415;82;21292;-79
2021/05/04 05:49:10;;;;;;;5.92;2.60;;;;;;;10.39;54.77;100148.61;1772878;81;21898;-79
2021/05/04 05:52:15;;;;;;;6.30;2.62;;;;;;;10.46;53.84;100151.83;1741173;82;21307;-79
2021/05/04 05:55:21;;;;;;;3.47;1.92;;;;;;;10.56;53.52;100146.13;1772654;81;21348;-79
2021/05/04 05:58:27;;;;;;;8.80;1.90;;;;;;;10.63;52.71;100147.12;1735133;82;21391;-79
2021/05/04 06:01:34;;;;;;;3.72;2.05;;;;;;;10.68;51.58;100146.07;1803062;79;21181;-79
2021/05/04 06:04:40;;;;;;;5.37;2.10;;;;;;;10.76;50.65;100150.61;1803153;79;21157;-79
2021/05/04 06:07:46;;;;;;;6.30;2.20;;;;;;;10.82;49.10;100145.81;1764877;81;21819;-79
2021/05/04 06:10:53;;;;;;;3.30;1.70;;;;;;;10.79;47.22;100149.42;1801538;79;21256;-79
2021/05/04 06:13:58;;;;;;;4.53;2.20;;;;;;;10.75;48.94;100142.08;1748364;81;21978;-79
2021/05/04 06:17:04;;;;;;;3.30;1.90;;;;;;;10.78;48.07;100149.94;1801401;79;21205;-79
2021/05/04 06:20:13;;;;;;;2.80;1.80;;;;;;;10.83;46.97;100144.77;1802515;79;21299;-79
2021/05/04 06:23:20;;;;;;;2.08;1.87;;;;;;;10.90;47.54;100153.94;1802896;79;21335;-79
2021/05/04 06:26:25;;;;;;;6.42;1.60;;;;;;;11.04;48.20;100148.70;1802844;79;21244;-79
2021/05/04 06:29:31;;;;;;;4.75;2.05;;;;;;;11.14;49.61;100150.15;1803503;79;21291;-78
2021/05/04 06:32:36;;;;;;;4.33;1.90;;;;;;;11.27;45.93;100152.27;1802695;79;21275;-79
2021/05/04 06:35:42;;;;;;;2.80;1.57;;;;;;;11.37;47.09;100146.54;1802856;79;21296;-79
2021/05/04 06:38:49;;;;;;;3.30;2.20;;;;;;;11.45;46.60;100133.62;1764833;81;21304;-79
2021/05/04 06:41:55;;;;;;;3.58;1.67;;;;;;;11.58;45.58;100152.69;1801492;79;21169;-79
2021/05/04 06:44:59;;;;;;;5.75;1.72;;;;;;;11.65;46.75;100150.88;1802862;79;21157;-79
2021/05/04 06:48:06;;;;;;;8.75;2.40;;;;;;;11.73;45.84;100149.44;1802803;79;21291;-79
2021/05/04 06:51:12;;;;;;;1.45;1.10;;;;;;;11.77;45.12;100145.29;1802040;79;21375;-79
2021/05/04 06:54:18;;;;;;;4.17;2.02;;;;;;;11.87;46.86;100151.37;1801386;79;21830;-79
2021/05/04 06:57:24;;;;;;;3.17;1.72;;;;;;;11.94;43.67;100161.89;1763273;81;21899;-79
2021/05/04 07:00:30;;;;;;;3.37;1.60;;;;;;;11.89;43.16;100156.65;1809994;79;21188;-79
2021/05/04 07:03:35;;;;;;;4.78;1.87;;;;;;;11.84;43.39;100150.36;1810198;79;21180;-79
2021/05/04 07:06:42;;;;;;;2.47;1.70;;;;;;;11.85;44.13;100169.02;1810075;79;21366;-79
2021/05/04 07:09:48;;;;;;;1.92;1.50;;;;;;;11.89;45.16;100162.98;1773451;81;21224;-79
2021/05/04 07:12:55;;;;;;;5.87;1.67;;;;;;;12.03;44.94;100162.66;1773403;81;21295;-79
2021/05/04 07:16:02;;;;;;;2.70;1.25;;;;;;;12.14;42.36;100168.17;1771750;81;21220;-79
2021/05/04 07:19:08;;;;;;;2.40;1.50;;;;;;;12.15;43.40;100156.19;1773012;81;21892;-79
2021/05/04 07:22:14;;;;;;;4.05;1.55;;;;;;;12.13;40.83;100154.14;1771777;81;21177;-79
2021/05/04 07:25:21;;;;;;;3.87;1.52;;;;;;;12.15;42.23;100158.92;1773099;81;21830;-79
2021/05/04 07:28:28;;;;;;;2.90;1.22;;;;;;;12.20;42.17;100164.69;1773486;81;21674;-79
2021/05/04 07:31:35;;;;;;;2.20;1.25;;;;;;;12.28;43.02;100165.44;1772807;81;21379;-79
2021/05/04 07:34:41;;;;;;;3.40;1.50;;;;;;;12.33;43.51;100163.50;1773509;81;21300;-79
2021/05/04 07:37:47;;;;;;;4.50;1.22;;;;;;;12.37;42.07;100168.91;1771871;81;21871;-79
2021/05/04 07:40:54;;;;;;;4.10;1.45;;;;;;;12.43;41.67;100148.95;1754070;81;21209;-79
2021/05/04 07:44:00;;;;;;;2.62;1.17;;;;;;;12.45;41.76;100153.72;1695996;82;21299;-79
2021/05/04 07:47:06;;;;;;;3.05;1.40;;;;;;;12.52;43.95;100158.78;1703680;82;21714;-79
2021/05/04 07:50:15;;;;;;;2.55;1.17;;;;;;;12.67;42.49;100167.49;1743068;82;21811;-79
2021/05/04 07:53:21;;;;;;;1.75;1.10;;;;;;;12.77;41.93;100177.11;1742881;82;21804;-79
2021/05/04 07:56:28;;;;;;;2.65;1.30;;;;;;;12.76;41.28;100154.83;1771677;81;21216;-79
2021/05/04 07:59:34;;;;;;;2.58;1.57;;;;;;;12.76;41.69;100163.06;1741228;82;21847;-79
2021/05/04 08:02:40;;;;;;;4.40;1.60;;;;;;;12.78;40.94;100186.19;1766656;81;21316;-79
2021/05/04 08:05:47;;;;;;;1.15;1.05;;;;;;;12.83;42.24;100169.98;1737536;82;21862;-79
2021/05/04 08:08:54;;;;;;;3.67;1.62;;;;;;;12.95;43.48;100173.08;1766767;81;21352;-79
2021/05/04 08:11:59;;;;;;;1.75;1.30;;;;;;;12.95;42.73;100175.30;1736657;82;21903;-79
2021/05/04 08:15:05;;;;;;;3.92;1.20;;;;;;;12.92;42.59;100172.94;1768122;81;21291;-79
2021/05/04 08:18:13;;;;;;;2.70;1.20;;;;;;;12.90;41.45;100177.78;1737666;82;21402;-79
2021/05/04 08:21:22;;;;;;;2.47;1.65;;;;;;;12.90;42.30;100158.56;1768049;81;21197;-79
2021/05/04 08:24:28;;;;;;;3.90;1.00;;;;;;;12.94;41.63;100159.88;1737711;82;21221;-79
2021/05/04 08:27:34;;;;;;;1.80;1.10;;;;;;;12.99;42.02;100149.16;1766970;81;21382;-79
2021/05/04 08:30:39;;;;;;;2.08;1.12;;;;;;;13.09;41.15;100147.98;1737812;82;21308;-79
2021/05/04 08:33:45;;;;;;;14.55;1.98;;;;;;;13.17;40.93;100145.08;1766775;81;21204;-79
2021/05/04 08:36:51;;;;;;;4.25;1.20;;;;;;;13.16;40.49;100142.02;1736308;82;21354;-79
2021/05/04 08:39:57;;;;;;;3.72;1.00;;;;;;;13.22;39.98;100159.10;1768087;81;21177;-79
2021/05/04 08:43:04;;;;;;;1.77;1.00;;;;;;;13.21;40.03;100139.52;1736578;82;21918;-79
2021/05/04 08:46:10;;;;;;;1.65;0.80;;;;;;;13.15;39.59;100146.66;1766713;81;21831;-79
2021/05/04 08:49:15;;;;;;;1.30;1.00;;;;;;;13.18;40.72;100138.56;1737981;82;21319;-79
2021/05/04 08:52:20;;;;;;;3.50;1.25;;;;;;;13.28;38.48;100139.11;1767635;81;21935;-79
2021/05/04 08:55:26;;;;;;;1.77;1.30;;;;;;;13.33;39.74;100135.23;1737709;82;21307;-79
2021/05/04 08:58:32;;;;;;;1.65;1.15;;;;;;;13.36;39.64;100132.60;1766891;81;21201;-79
2021/05/04 09:01:40;;;;;;;3.17;1.15;;;;;;;13.42;38.90;100152.44;1733032;82;21339;-79
2021/05/04 09:04:56;;;;;;;1.32;1.00;;;;;;;13.45;39.86;100155.61;1802999;79;21362;-79
2021/05/04 09:07:56;;;;;;;1.80;1.05;;;;;;;13.43;38.48;100141.23;1764845;81;21792;-79
2021/05/04 09:11:02;;;;;;;3.08;0.95;;;;;;;13.38;38.84;100154.72;1803043;79;21803;-79
2021/05/04 09:17:39;;;;;;;5.25;1.12;;;;;;;13.55;40.47;100131.94;1734586;82;21304;-79
2021/05/04 09:21:00;;;;;;;3.90;0.90;;;;;;;13.68;39.54;100139.41;1802986;79;21448;-79
2021/05/04 09:23:53;;;;;;;4.03;0.90;;;;;;;13.86;40.01;100142.49;1766070;79;21847;-79
2021/05/04 09:27:09;;;;;;;2.45;1.00;;;;;;;13.97;35.61;100141.95;1764777;81;21705;-79
2021/05/04 09:30:16;;;;;;;1.50;0.98;;;;;;;14.00;37.25;100136.02;1802774;79;21875;-79
2021/05/04 09:33:21;;;;;;;1.00;0.80;;;;;;;14.05;35.68;100127.16;1764938;79;21327;-79
2021/05/04 09:36:57;;;;;;;2.27;1.00;;;;;;;14.02;34.35;100130.31;1802481;79;21338;-79
2021/05/04 09:40:03;;;;;;;0.95;0.85;;;;;;;14.05;35.88;100133.51;1802994;79;21220;-79
2021/05/04 09:43:27;;;;;;;2.35;1.12;;;;;;;14.06;35.31;100128.85;1764317;81;21288;-79
2021/05/04 09:46:55;;;;;;;1.35;1.07;;;;;;;14.05;34.33;100139.01;1734859;82;21292;-79
2021/05/04 09:50:03;;;;;;;2.62;1.07;;;;;;;14.10;35.90;100127.40;1802986;79;21835;-79
2021/05/04 09:53:15;;;;;;;2.07;0.70;;;;;;;14.19;34.62;100129.45;1801743;79;21343;-79
2021/05/04 09:56:24;;;;;;;2.05;0.90;;;;;;;14.21;37.35;100132.84;1801544;79;21343;-79
2021/05/04 09:59:29;;;;;;;2.45;1.07;;;;;;;14.27;37.22;100139.77;1802914;79;21359;-80
2021/05/04 10:02:36;;;;;;;7.12;1.72;;;;;;;14.40;37.13;100129.36;1801064;79;21862;-79
2021/05/04 10:05:42;;;;;;;10.78;0.98;;;;;;;14.56;36.01;100133.14;1802930;79;21189;-79
2021/05/04 10:08:48;;;;;;;5.10;1.02;;;;;;;14.54;35.53;100128.37;1802950;79;21291;-79
2021/05/04 10:11:48;;;;;;;19.05;1.70;;;;;;;14.38;35.15;100127.84;1764825;81;21316;-79
2021/05/04 10:14:52;;;;;;;10.58;1.32;;;;;;;14.40;35.92;100136.23;1801359;79;21319;-79
2021/05/04 10:17:58;;;;;;;2.42;1.20;;;;;;;14.53;35.96;100129.41;1803008;79;21283;-79
2021/05/04 10:21:08;;;;;;;1.30;0.90;;;;;;;14.61;35.84;100133.05;1764842;81;22395;-80
2021/05/04 10:24:14;;;;;;;;;;;;;;;14.66;36.56;100126.39;1736383;82;21241;-79
2021/05/04 10:27:20;;;;;;;2.60;1.10;;;;;;;14.69;35.59;100123.23;1764886;81;20211;-80
2021/05/04 10:30:31;;;;;;;2.05;1.10;;;;;;;14.65;35.48;100119.20;1732983;82;21209;-79
2021/05/04 10:33:43;;;;;;;4.85;1.10;;;;;;;14.66;36.28;100116.23;1802684;79;21324;-79
2021/05/04 10:36:49;;;;;;;4.37;1.10;;;;;;;14.75;35.83;100132.03;1802310;79;21414;-79
2021/05/04 10:39:55;;;;;;;6.00;1.55;;;;;;;14.79;35.75;100119.02;1801413;79;21224;-79
2021/05/04 10:43:00;;;;;;;2.25;1.07;;;;;;;14.85;35.25;100128.34;1802906;79;21283;-79
2021/05/04 10:46:09;;;;;;;6.15;1.05;;;;;;;14.93;34.46;100127.31;1802746;79;21228;-79
2021/05/04 10:49:16;;;;;;;1.20;1.10;;;;;;;14.98;34.48;100122.86;1764854;81;21280;-79
2021/05/04 10:52:22;;;;;;;2.20;1.20;;;;;;;14.90;35.65;100116.70;1802953;79;21327;-79
2021/05/04 10:55:31;;;;;;;1.12;0.80;;;;;;;14.83;34.56;100114.80;1747085;81;21859;-79
2021/05/04 10:58:37;;;;;;;2.98;1.10;;;;;;;14.90;36.20;100109.28;1803103;79;21336;-80
2021/05/04 11:01:43;;;;;;;3.72;1.00;;;;;;;15.03;35.00;100111.22;1786050;79;21181;-79
2021/05/04 11:04:57;;;;;;;6.03;1.10;;;;;;;14.99;35.68;100115.45;1801615;79;21323;-79
2021/05/04 11:08:06;;;;;;;2.80;1.15;;;;;;;14.92;35.93;100109.94;1802963;79;21886;-80
2021/05/04 11:11:40;;;;;;;3.08;0.90;;;;;;;14.89;35.59;100103.47;1803133;79;21922;-80
2021/05/04 11:14:46;;;;;;;2.30;1.07;;;;;;;14.87;36.10;100096.45;1764098;81;21759;-79
2021/05/04 11:17:52;;;;;;;2.47;1.20;;;;;;;15.00;34.82;100095.95;1802943;79;21212;-79
2021/05/04 11:20:58;;;;;;;6.62;1.30;;;;;;;15.07;35.60;100092.69;1803151;79;21232;-79
2021/05/04 11:24:11;;;;;;;2.55;1.10;;;;;;;15.07;35.18;100093.22;1802959;79;22472;-80
2021/05/04 11:27:22;;;;;;;3.52;2.33;;;;;;;15.09;35.08;100085.04;1763448;81;21174;-79
2021/05/04 11:30:43;;;;;;;3.67;1.52;;;;;;;15.10;35.40;100088.64;1733174;82;21264;-79
2021/05/04 11:33:49;;;;;;;5.67;1.40;;;;;;;15.11;35.19;100091.74;1803109;79;21295;-79
2021/05/04 11:36:54;;;;;;;6.62;1.17;;;;;;;15.19;34.23;100091.51;1802283;79;21232;-79
2021/05/04 11:40:03;;;;;;;4.42;1.60;;;;;;;15.17;34.28;100089.51;1802945;79;21803;-79
2021/05/04 11:43:11;;;;;;;7.17;1.50;;;;;;;15.02;34.79;100100.73;1802985;79;21303;-79
2021/05/04 11:46:16;;;;;;;6.33;1.12;;;;;;;14.87;35.86;100093.20;1800826;79;21327;-79
2021/05/04 11:49:32;;;;;;;5.87;1.22;;;;;;;15.02;36.99;100084.20;1802673;79;21823;-80
2021/05/04 11:52:39;;;;;;;2.50;1.40;;;;;;;15.28;36.13;100086.10;1764668;81;21303;-80
2021/05/04 11:55:56;;;;;;;5.60;1.42;;;;;;;15.51;34.97;100076.55;1801391;79;21791;-79
2021/05/04 11:59:02;;;;;;;3.87;1.20;;;;;;;15.59;33.90;100074.95;1803012;79;21177;-80
2021/05/04 12:02:08;;;;;;;4.70;1.30;;;;;;;15.49;34.04;100072.64;1748439;81;21185;-79
2021/05/04 12:05:16;;;;;;;5.78;1.20;;;;;;;15.47;34.53;100076.66;1802198;79;21319;-80
2021/05/04 12:08:22;;;;;;;4.03;1.37;;;;;;;15.30;34.64;100072.98;1801315;79;21165;-80
2021/05/04 12:11:34;;;;;;;2.10;1.20;;;;;;;15.20;34.74;100073.09;1802993;79;21335;-80
2021/05/04 12:15:03;;;;;;;2.30;1.12;;;;;;;15.13;35.62;100077.21;1802779;79;21335;-79
2021/05/04 12:18:30;;;;;;;3.58;1.40;;;;;;;15.11;35.76;100068.86;1801306;79;21228;-79
2021/05/04 12:21:38;;;;;;;4.33;1.10;;;;;;;15.07;34.79;100065.67;1803040;79;21834;-80
2021/05/04 12:24:44;;;;;;;4.00;1.02;;;;;;;15.13;34.92;100069.48;1801146;79;21303;-79
2021/05/04 12:27:50;;;;;;;2.37;1.40;;;;;;;15.27;34.20;100058.77;1802999;79;21172;-80
2021/05/04 12:30:59;;;;;;;2.35;1.42;;;;;;;15.40;33.85;100057.39;1764023;81;21336;-79
2021/05/04 12:34:05;;;;;;;2.87;1.22;;;;;;;15.45;33.74;100062.26;1801166;79;21823;-80
2021/05/04 12:37:13;;;;;;;4.20;1.62;;;;;;;15.46;34.18;100057.06;1801894;79;21311;-80
2021/05/04 12:40:27;;;;;;;3.08;1.25;;;;;;;15.39;33.73;100068.64;1766750;79;21295;-80
2021/05/04 12:43:34;;;;;;;2.37;1.30;;;;;;;15.25;34.45;100078.81;1764990;81;21201;-79
2021/05/04 12:46:40;;;;;;;2.52;1.42;;;;;;;15.20;33.36;100078.08;1801839;79;21311;-79
2021/05/04 12:49:51;;;;;;;4.35;1.02;;;;;;;15.14;34.20;100073.92;1801399;79;21244;-80
2021/05/04 12:52:56;;;;;;;3.08;1.05;;;;;;;15.08;33.90;100081.98;1801459;79;21276;-80
2021/05/04 12:56:11;;;;;;;2.25;1.27;;;;;;;15.08;33.83;100072.34;1802421;79;21331;-79
2021/05/04 12:59:19;;;;;;;3.87;1.40;;;;;;;15.13;33.99;100077.74;1764807;81;21371;-79
2021/05/04 13:02:33;;;;;;;1.70;1.20;;;;;;;15.11;33.94;100071.08;1801870;79;21331;-80
2021/05/04 13:05:39;;;;;;;1.85;1.30;;;;;;;15.03;34.11;100085.05;1804431;79;22004;-79
2021/05/04 13:09:14;;;;;;;6.87;1.70;;;;;;;15.00;34.89;100078.05;1811523;79;21941;-80
2021/05/04 13:29:50;;;;;;;4.05;1.40;;;;;;;14.96;35.04;100099.33;1742432;82;21311;-79
2021/05/04 13:32:54;;;;;;;1.32;1.10;;;;;;;14.94;34.21;100100.92;1771793;81;21902;-80
2021/05/04 13:36:03;;;;;;;2.40;1.25;;;;;;;14.89;34.21;100104.00;1742266;82;21975;-79
2021/05/04 13:39:25;;;;;;;4.72;1.15;;;;;;;14.85;33.58;100099.43;1772992;81;21380;-80
2021/05/04 13:49:09;;;;;;;1.80;1.17;;;;;;;14.91;35.39;100098.58;1742218;82;21189;-79
2021/05/04 13:52:15;;;;;;;5.28;1.35;;;;;;;14.81;35.66;100114.67;1771526;81;21281;-80
2021/05/04 13:55:21;;;;;;;2.85;1.05;;;;;;;14.70;35.34;100111.16;1742419;82;21895;-79
2021/05/04 13:58:33;;;;;;;2.87;1.27;;;;;;;14.62;35.57;100103.93;1771484;81;21825;-79
2021/05/04 14:01:43;;;;;;;4.72;1.50;;;;;;;14.53;36.20;100119.78;1740851;82;21189;-79
2021/05/04 14:04:57;;;;;;;2.72;1.10;;;;;;;14.54;36.33;100117.38;1772845;81;21315;-79
2021/05/04 14:08:32;;;;;;;4.05;1.30;;;;;;;14.56;36.16;100111.65;1735282;82;21279;-79
2021/05/04 14:15:36;;;;;;;8.03;1.55;;;;;;;14.49;36.94;100117.14;1737760;82;21173;-79
2021/05/04 14:28:11;;;;;;;1.87;1.30;;;;;;;14.23;37.60;100104.62;1736432;82;21307;-79
2021/05/04 14:31:16;;;;;;;4.87;1.50;;;;;;;14.21;37.22;100101.20;1768099;81;21907;-79
2021/05/04 14:34:22;;;;;;;3.35;1.32;;;;;;;14.21;37.00;100093.83;1737677;82;21323;-79
2021/05/04 14:38:02;;;;;;;2.40;1.47;;;;;;;14.23;37.59;100097.20;1766897;81;21205;-80
2021/05/04 15:03:22;;;;;;;8.95;1.60;;;;;;;13.73;37.47;100092.39;1737076;82;21224;-80
2021/05/04 15:06:27;;;;;;;2.00;1.20;;;;;;;13.76;38.55;100092.53;1768050;81;21292;-79
2021/05/04 15:09:36;;;;;;;6.83;1.40;;;;;;;13.78;38.01;100089.04;1737791;82;21300;-79
2021/05/04 15:12:44;;;;;;;2.98;1.35;;;;;;;13.78;37.02;100089.91;1766615;81;21193;-79
2021/05/04 15:16:16;;;;;;;2.12;1.50;;;;;;;13.75;35.50;100079.84;1737708;82;21319;-79
2021/05/04 15:22:33;;;;;;;6.25;1.47;;;;;;;13.71;37.65;100088.16;1737779;82;21296;-79
2021/05/04 15:25:38;;;;;;;2.22;1.20;;;;;;;13.70;37.06;100090.60;1768027;81;21287;-79
2021/05/04 15:28:43;;;;;;;2.67;1.40;;;;;;;13.63;37.10;100097.94;1736689;82;21740;-79
2021/05/04 15:31:54;;;;;;;3.35;1.40;;;;;;;13.49;37.08;100085.48;1767941;81;21737;-79
2021/05/04 15:35:06;;;;;;;1.90;1.20;;;;;;;13.35;37.55;100093.30;1737842;82;21224;-79
2021/05/04 15:38:15;;;;;;;6.00;1.80;;;;;;;13.23;38.15;100104.52;1767445;81;21323;-79
2021/05/04 15:41:21;;;;;;;4.33;1.37;;;;;;;13.16;38.68;100101.67;1768170;81;21832;-79
2021/05/04 15:44:27;;;;;;;1.85;1.20;;;;;;;13.11;39.01;100107.44;1737721;82;21792;-79